.
WxDataArchive / Data Records for 2009-05-19
2009-05-18 May 2009 2009-05-20

Data Records for Tuesday, 19 May 2009

Time	Temp	Chill	HIndex	Humid	Dewpt	 Wind 	HiWind	WindDir	Rain 	Barom 
-----	----	-----	------	-----	-----	------	------	-------	-----	----- 
00:00	56.2	56.2	56.2	47	36.2	0	0	---	0.00	30.291 
00:05	55.9	55.9	55.9	45	34.9	0	0	---	0.00	30.291 
00:10	55.9	55.9	55.9	45	34.9	0	1	90	0.00	30.291 
00:15	55.7	55.7	55.7	46	35.2	0	1	---	0.00	30.293 
00:20	55.6	55.6	55.6	46	35.2	0	0	---	0.00	30.293 
00:25	55.4	55.4	55.4	45	34.4	0	0	---	0.00	30.293 
00:30	55.1	55.1	55.1	46	34.7	0	0	---	0.00	30.296 
00:35	55.0	55.0	55.0	46	34.6	0	0	---	0.00	30.296 
00:40	55.0	55.0	55.0	45	34.1	0	0	---	0.00	30.296 
00:45	55.0	55.0	55.0	46	34.6	0	0	---	0.00	30.291 
00:50	55.0	55.0	55.0	46	34.6	0	0	---	0.00	30.291 
00:55	54.8	54.8	54.8	46	34.4	0	1	90	0.00	30.291 
01:00	54.8	54.8	54.8	46	34.4	0	1	90	0.00	30.290 
01:05	54.7	54.7	54.7	47	34.9	0	1	90	0.00	30.290 
01:10	54.5	54.5	54.5	49	35.7	0	0	---	0.00	30.290 
01:15	54.2	54.2	54.2	48	34.9	0	0	---	0.00	30.291 
01:20	53.9	53.9	53.9	49	35.2	0	0	---	0.00	30.291 
01:25	53.6	53.6	53.6	49	34.9	0	0	---	0.00	30.291 
01:30	53.3	53.3	53.3	50	35.1	0	0	---	0.00	30.293 
01:35	53.2	53.2	53.2	52	36.0	0	0	---	0.00	30.293 
01:40	53.1	53.1	53.1	51	35.5	0	0	---	0.00	30.293 
01:45	52.9	52.9	52.9	52	35.8	0	0	---	0.00	30.293 
01:50	53.1	53.1	53.1	53	36.4	0	0	---	0.00	30.293 
01:55	53.2	53.2	53.2	53	36.5	0	0	---	0.00	30.293 
02:00	53.2	53.2	53.2	53	36.5	0	0	---	0.00	30.294 
02:05	53.3	53.3	53.3	54	37.1	0	0	---	0.00	30.294 
02:10	53.3	53.3	53.3	53	36.6	0	0	---	0.00	30.294 
02:15	53.3	53.3	53.3	53	36.6	0	0	---	0.00	30.292 
02:20	53.3	53.3	53.3	53	36.6	0	0	---	0.00	30.292 
02:25	53.3	53.3	53.3	52	36.1	0	0	---	0.00	30.292 
02:30	53.3	53.3	53.3	52	36.1	0	0	---	0.00	30.291 
02:35	53.2	53.2	53.2	54	37.0	0	0	---	0.00	30.291 
02:40	53.1	53.1	53.1	54	36.9	0	0	---	0.00	30.291 
02:45	52.9	52.9	52.9	54	36.7	0	0	---	0.00	30.291 
02:50	52.8	52.8	52.8	54	36.6	0	0	---	0.00	30.291 
02:55	52.6	52.6	52.6	55	36.9	0	0	---	0.00	30.291 
03:00	52.5	52.5	52.5	58	38.2	0	0	---	0.00	30.291 
03:05	52.3	52.3	52.3	57	37.5	0	0	---	0.00	30.291 
03:10	52.3	52.3	52.3	56	37.1	0	0	---	0.00	30.291 
03:15	52.3	52.3	52.3	58	38.0	0	0	---	0.00	30.291 
03:20	52.2	52.2	52.2	57	37.4	0	0	---	0.00	30.291 
03:25	52.2	52.2	52.2	57	37.4	0	0	---	0.00	30.291 
03:30	52.2	52.2	52.2	57	37.4	0	0	---	0.00	30.291 
03:35	52.2	52.2	52.2	57	37.4	0	0	---	0.00	30.291 
03:40	52.0	52.0	52.0	57	37.2	0	0	---	0.00	30.291 
03:45	51.7	51.7	51.7	58	37.4	0	0	---	0.00	30.291 
03:50	51.6	51.6	51.6	58	37.3	0	0	---	0.00	30.291 
03:55	51.3	51.3	51.3	59	37.5	0	0	---	0.00	30.291 
04:00	51.0	51.0	51.0	59	37.2	0	0	---	0.00	30.297 
04:05	50.7	50.7	50.7	59	36.9	0	0	---	0.00	30.297 
04:10	50.4	50.4	50.4	59	36.6	0	0	---	0.00	30.297 
04:15	50.1	50.1	50.1	60	36.8	0	0	---	0.00	30.306 
04:20	49.8	49.8	49.8	61	36.9	0	0	---	0.00	30.306 
04:25	49.5	49.5	49.5	62	37.0	0	0	---	0.00	30.306 
04:30	49.2	49.2	49.2	62	36.7	0	0	---	0.00	30.309 
04:35	48.9	48.9	48.9	63	36.9	0	0	---	0.00	30.309 
04:40	48.6	48.6	48.6	65	37.4	0	0	---	0.00	30.309 
04:45	48.5	48.5	48.5	65	37.3	0	0	---	0.00	30.310 
04:50	48.2	48.2	48.2	65	37.0	0	0	---	0.00	30.310 
04:55	47.9	47.9	47.9	66	37.1	0	0	---	0.00	30.310 
05:00	47.6	47.6	47.6	67	37.2	0	0	---	0.00	30.316 
05:05	47.4	47.4	47.4	67	37.0	0	0	---	0.00	30.316 
05:10	47.1	47.1	47.1	67	36.7	0	0	---	0.00	30.316 
05:15	46.8	46.8	46.8	68	36.8	0	0	---	0.00	30.323 
05:20	46.7	46.7	46.7	69	37.1	0	0	---	0.00	30.323 
05:25	46.4	46.4	46.4	71	37.5	0	0	---	0.00	30.323 
05:30	46.2	46.2	46.2	72	37.7	0	0	---	0.00	30.323 
05:35	46.2	46.2	46.2	73	38.0	0	0	---	0.00	30.323 
05:40	46.2	46.2	46.2	73	38.0	0	0	---	0.00	30.323 
05:45	46.2	46.2	46.2	73	38.0	0	0	---	0.00	30.326 
05:50	46.4	46.4	46.4	72	37.9	0	0	---	0.00	30.326 
05:55	46.5	46.5	46.5	72	38.0	0	0	---	0.00	30.326 
06:00	46.8	46.8	46.8	71	37.9	0	0	---	0.00	30.327 
06:05	46.8	46.8	46.8	70	37.5	0	0	---	0.00	30.327 
06:10	47.0	47.0	47.0	70	37.7	0	0	---	0.00	30.327 
06:15	47.1	47.1	47.1	69	37.5	0	0	---	0.00	30.330 
06:20	47.0	47.0	47.0	69	37.4	0	0	---	0.00	30.330 
06:25	47.1	47.1	47.1	69	37.5	0	0	---	0.00	30.330 
06:30	47.1	47.1	47.1	69	37.5	0	0	---	0.00	30.332 
06:35	47.3	47.3	47.3	68	37.3	0	0	---	0.00	30.332 
06:40	47.3	47.3	47.3	68	37.3	0	0	---	0.00	30.332 
06:45	47.3	47.3	47.3	68	37.3	0	0	---	0.00	30.341 
06:50	47.4	47.4	47.4	67	37.0	0	0	---	0.00	30.341 
06:55	47.6	47.6	47.6	68	37.6	0	0	---	0.00	30.341 
07:00	47.7	47.7	47.7	67	37.3	0	0	---	0.00	30.341 
07:05	48.0	48.0	48.0	67	37.6	0	0	---	0.00	30.341 
07:10	48.3	48.3	48.3	67	37.9	0	0	---	0.00	30.341 
07:15	48.6	48.6	48.6	66	37.8	0	0	---	0.00	30.344 
07:20	48.9	48.9	48.9	65	37.7	0	0	---	0.00	30.344 
07:25	49.5	49.5	49.5	64	37.8	0	0	---	0.00	30.344 
07:30	50.1	50.1	50.1	62	37.6	0	0	---	0.00	30.344 
07:35	50.7	50.7	50.7	60	37.3	0	1	90	0.00	30.344 
07:40	51.3	51.3	51.3	59	37.5	0	1	90	0.00	30.344 
07:45	51.7	51.7	51.7	59	37.8	0	1	90	0.00	30.355 
07:50	52.3	52.3	52.3	58	38.0	0	2	90	0.00	30.355 
07:55	52.8	52.8	52.8	57	38.0	0	2	90	0.00	30.355 
08:00	53.1	53.1	53.1	56	37.8	0	1	90	0.00	30.356 
08:05	53.3	53.3	53.3	56	38.0	0	2	292	0.00	30.356 
08:10	53.6	53.6	53.6	54	37.4	0	2	292	0.00	30.356 
08:15	53.9	53.9	53.9	54	37.6	0	2	292	0.00	30.359 
08:20	54.5	54.5	54.5	53	37.7	0	2	292	0.00	30.359 
08:25	55.1	55.1	55.1	54	38.8	0	1	315	0.00	30.359 
08:30	55.7	55.7	55.7	51	37.9	0	2	248	0.00	30.366 
08:35	56.3	56.3	56.3	50	37.9	0	2	248	0.00	30.366 
08:40	56.9	56.9	56.9	51	39.0	0	1	248	0.00	30.366 
08:45	57.5	57.5	57.5	49	38.5	1	3	22	0.00	30.365 
08:50	58.1	58.1	58.1	49	39.0	0	2	315	0.00	30.365 
08:55	58.3	58.3	58.3	47	38.2	0	2	248	0.00	30.365 
09:00	58.6	58.6	58.6	47	38.4	0	2	248	0.00	30.364 
09:05	58.7	58.7	58.7	46	38.0	1	3	270	0.00	30.364 
09:10	59.3	59.3	59.3	46	38.5	1	3	292	0.00	30.364 
09:15	60.1	60.1	60.1	45	38.7	1	2	315	0.00	30.368 
09:20	60.5	60.5	60.5	45	39.1	0	2	248	0.00	30.368 
09:25	61.0	61.0	61.0	43	38.3	1	5	248	0.00	30.368 
09:30	61.3	61.3	61.3	43	38.6	2	5	248	0.00	30.366 
09:35	61.8	61.8	61.8	40	37.2	1	4	248	0.00	30.366 
09:40	62.3	62.3	62.3	39	37.0	2	4	248	0.00	30.366 
09:45	62.4	62.4	62.4	38	36.5	2	4	248	0.00	30.367 
09:50	62.6	62.6	62.6	37	36.0	2	4	270	0.00	30.367 
09:55	62.7	62.7	62.7	35	34.7	3	7	270	0.00	30.367 
10:00	62.9	62.9	62.9	37	36.2	2	4	248	0.00	30.363 
10:05	63.2	63.2	63.2	37	36.5	1	5	270	0.00	30.363 
10:10	63.5	63.5	63.5	38	37.4	2	7	270	0.00	30.363 
10:15	63.9	63.9	63.9	37	37.1	2	6	270	0.00	30.364 
10:20	64.0	64.0	64.0	37	37.2	2	5	248	0.00	30.364 
10:25	64.3	64.3	64.3	35	36.1	2	7	270	0.00	30.364 
10:30	64.3	64.3	64.3	35	36.1	2	7	270	0.00	30.358 
10:35	64.3	64.3	64.3	34	35.3	3	7	292	0.00	30.358 
10:40	64.5	64.5	64.5	36	36.9	2	10	270	0.00	30.358 
10:45	65.0	65.0	65.0	34	35.9	3	7	270	0.00	30.353 
10:50	65.0	65.0	65.0	32	34.4	4	10	270	0.00	30.353 
10:55	65.0	65.0	65.0	33	35.2	3	8	270	0.00	30.353 
11:00	65.2	65.2	65.2	34	36.1	2	7	270	0.00	30.354 
11:05	65.6	65.6	65.6	31	34.1	2	7	270	0.00	30.354 
11:10	65.8	65.8	65.8	32	35.1	3	7	270	0.00	30.354 
11:15	65.8	65.8	65.8	32	35.1	3	7	270	0.00	30.357 
11:20	65.8	65.8	65.8	32	35.1	3	11	270	0.00	30.357 
11:25	66.0	66.0	66.0	35	37.6	2	9	248	0.00	30.357 
11:30	66.4	66.4	66.4	31	34.8	2	5	248	0.00	30.356 
11:35	66.8	66.8	66.8	33	36.8	2	6	270	0.00	30.356 
11:40	67.1	67.1	67.1	32	36.3	2	4	270	0.00	30.356 
11:45	67.6	67.6	67.6	33	37.5	2	6	270	0.00	30.353 
11:50	67.8	67.8	67.8	33	37.6	2	6	270	0.00	30.353 
11:55	67.9	67.9	67.9	33	37.7	2	6	270	0.00	30.353 
12:00	68.4	68.4	68.4	35	39.7	2	6	270	0.00	30.348 
12:05	68.6	68.6	68.6	32	37.6	2	7	248	0.00	30.348 
12:10	68.4	68.4	68.4	32	37.4	3	6	270	0.00	30.348 
12:15	68.6	68.6	68.6	32	37.6	2	5	225	0.00	30.347 
12:20	69.1	69.1	69.1	32	38.0	1	4	248	0.00	30.347 
12:25	69.3	69.3	69.3	31	37.4	2	6	292	0.00	30.347 
12:30	69.3	69.3	69.3	35	40.5	2	6	270	0.00	30.342 
12:35	69.1	69.1	69.1	30	36.4	3	4	270	0.00	30.342 
12:40	69.3	69.3	69.3	34	39.7	2	5	270	0.00	30.342 
12:45	69.8	69.8	69.8	30	37.0	2	5	248	0.00	30.335 
12:50	69.6	69.6	69.6	31	37.6	3	6	248	0.00	30.335 
12:55	69.8	69.8	69.8	31	37.8	2	6	270	0.00	30.335 
13:00	70.1	70.1	70.1	32	38.9	2	5	248	0.00	30.331 
13:05	70.4	70.4	70.4	33	39.9	3	6	248	0.00	30.331 
13:10	70.6	70.6	70.6	33	40.1	1	4	270	0.00	30.331 
13:15	70.9	70.9	70.9	30	37.9	2	7	270	0.00	30.326 
13:20	70.9	70.9	70.9	32	39.6	2	6	270	0.00	30.326 
13:25	70.9	70.9	70.9	32	39.6	2	5	248	0.00	30.326 
13:30	71.5	71.5	71.5	29	37.6	2	4	270	0.00	30.327 
13:35	71.5	71.5	71.5	28	36.7	2	5	270	0.00	30.327 
13:40	71.6	71.6	71.6	31	39.4	1	5	248	0.00	30.327 
13:45	72.1	72.1	72.1	33	41.4	1	5	270	0.00	30.324 
13:50	72.1	72.1	72.1	27	36.3	2	5	270	0.00	30.324 
13:55	72.0	72.0	72.0	31	39.7	2	4	270	0.00	30.324 
14:00	72.3	72.3	72.3	34	42.3	1	3	270	0.00	30.317 
14:05	72.5	72.5	72.5	27	36.6	2	6	270	0.00	30.317 
14:10	72.5	72.5	72.5	32	41.0	2	5	248	0.00	30.317 
14:15	72.5	72.5	72.5	32	41.0	2	6	248	0.00	30.316 
14:20	72.7	72.7	72.7	32	41.1	1	4	22	0.00	30.316 
14:25	73.0	73.0	73.0	31	40.6	2	5	248	0.00	30.316 
14:30	72.8	72.8	72.8	31	40.4	2	5	270	0.00	30.314 
14:35	73.0	73.0	73.0	29	38.9	1	3	248	0.00	30.314 
14:40	73.2	73.2	73.2	31	40.7	2	5	270	0.00	30.314 
14:45	73.2	73.2	73.2	32	41.6	2	7	112	0.00	30.308 
14:50	73.7	73.7	73.7	31	41.2	1	5	270	0.00	30.308 
14:55	74.0	74.0	74.0	30	40.6	1	4	270	0.00	30.308 
15:00	73.7	73.7	73.7	32	42.0	2	4	270	0.00	30.307 
15:05	73.9	73.9	73.9	34	43.7	2	5	270	0.00	30.307 
15:10	74.0	74.0	74.0	29	39.7	1	4	248	0.00	30.307 
15:15	74.0	74.0	74.0	36	45.3	2	7	270	0.00	30.310 
15:20	74.2	74.2	74.2	33	43.2	1	5	270	0.00	30.310 
15:25	74.6	74.6	74.6	30	41.1	1	4	270	0.00	30.310 
15:30	74.6	74.6	74.6	29	40.2	2	5	112	0.00	30.302 
15:35	74.6	74.6	74.6	28	39.3	2	5	248	0.00	30.302 
15:40	74.2	74.2	74.2	32	42.4	2	5	292	0.00	30.302 
15:45	74.6	74.6	74.6	31	42.0	1	5	248	0.00	30.298 
15:50	74.6	74.6	74.6	31	42.0	2	7	270	0.00	30.298 
15:55	74.6	74.6	74.6	31	42.0	1	4	248	0.00	30.298 
16:00	74.9	74.9	74.9	29	40.5	1	5	225	0.00	30.290 
16:05	74.9	74.9	74.9	33	43.8	1	5	90	0.00	30.290 
16:10	74.9	74.9	74.9	35	45.4	1	5	248	0.00	30.290 
16:15	74.9	74.9	74.9	27	38.7	2	4	270	0.00	30.297 
16:20	74.9	74.9	74.9	29	40.5	1	3	248	0.00	30.297 
16:25	75.1	75.1	76.9	29	40.7	1	3	68	0.00	30.297 
16:30	75.4	75.4	77.3	34	45.1	1	3	68	0.00	30.289 
16:35	75.4	75.4	77.1	31	42.6	2	6	315	0.00	30.289 
16:40	75.3	75.3	77.0	30	41.7	1	4	292	0.00	30.289 
16:45	75.6	75.6	77.2	31	42.8	1	4	315	0.00	30.286 
16:50	75.8	75.8	77.3	31	43.0	1	3	68	0.00	30.286 
16:55	75.6	75.6	77.1	29	41.1	2	6	90	0.00	30.286 
17:00	75.3	75.3	77.0	29	40.8	2	5	112	0.00	30.286 
17:05	75.4	75.4	76.9	28	40.0	2	6	270	0.00	30.286 
17:10	75.4	75.4	77.0	29	40.9	1	3	248	0.00	30.286 
17:15	75.6	75.6	77.1	29	41.1	1	2	45	0.00	30.281 
17:20	75.8	75.8	77.3	31	43.0	1	3	0	0.00	30.281 
17:25	75.6	75.6	76.9	27	39.2	2	6	248	0.00	30.281 
17:30	75.3	75.3	76.9	28	39.9	2	4	270	0.00	30.276 
17:35	75.3	75.3	76.9	28	39.9	2	5	248	0.00	30.276 
17:40	75.3	75.3	77.0	29	40.8	1	4	225	0.00	30.276 
17:45	75.4	75.4	76.8	27	39.1	1	3	270	0.00	30.273 
17:50	75.4	75.4	76.9	28	40.0	2	6	225	0.00	30.273 
17:55	75.4	75.4	76.7	26	38.1	2	5	270	0.00	30.273 
18:00	75.3	75.3	76.8	27	39.0	1	5	248	0.00	30.275 
18:05	75.3	75.3	76.9	28	39.9	1	4	248	0.00	30.275 
18:10	75.3	75.3	76.9	28	39.9	1	9	248	0.00	30.275 
18:15	75.1	75.1	76.8	28	39.8	1	6	270	0.00	30.272 
18:20	74.7	74.7	74.7	30	41.2	1	5	248	0.00	30.272 
18:25	74.6	74.6	74.6	28	39.3	2	5	248	0.00	30.272 
18:30	74.4	74.4	74.4	28	39.2	1	4	248	0.00	30.271 
18:35	74.0	74.0	74.0	27	37.9	1	5	270	0.00	30.271 
18:40	73.9	73.9	73.9	27	37.8	1	4	90	0.00	30.271 
18:45	73.7	73.7	73.7	28	38.6	2	6	292	0.00	30.270 
18:50	73.7	73.7	73.7	29	39.5	1	4	248	0.00	30.270 
18:55	73.5	73.5	73.5	28	38.4	1	4	270	0.00	30.270 
19:00	73.5	73.5	73.5	27	37.5	1	4	248	0.00	30.270 
19:05	73.3	73.3	73.3	29	39.1	0	2	270	0.00	30.270 
19:10	73.2	73.2	73.2	29	39.0	0	3	270	0.00	30.270 
19:15	73.2	73.2	73.2	29	39.0	0	4	270	0.00	30.267 
19:20	73.2	73.2	73.2	30	39.9	1	3	292	0.00	30.267 
19:25	73.0	73.0	73.0	27	37.0	1	5	248	0.00	30.267 
19:30	73.0	73.0	73.0	28	38.0	1	3	248	0.00	30.267 
19:35	72.7	72.7	72.7	30	39.5	0	2	68	0.00	30.267 
19:40	72.5	72.5	72.5	29	38.4	1	4	292	0.00	30.267 
19:45	72.3	72.3	72.3	29	38.3	0	3	225	0.00	30.269 
19:50	72.0	72.0	72.0	30	38.9	0	3	248	0.00	30.269 
19:55	71.8	71.8	71.8	30	38.7	0	2	270	0.00	30.269 
20:00	71.6	71.6	71.6	30	38.5	0	3	270	0.00	30.268 
20:05	71.6	71.6	71.6	31	39.4	1	4	248	0.00	30.268 
20:10	71.5	71.5	71.5	31	39.3	0	2	248	0.00	30.268 
20:15	71.1	71.1	71.1	31	38.9	0	2	248	0.00	30.261 
20:20	70.9	70.9	70.9	31	38.7	0	2	248	0.00	30.261 
20:25	70.6	70.6	70.6	33	40.1	0	1	248	0.00	30.261 
20:30	70.3	70.3	70.3	33	39.8	0	1	248	0.00	30.265 
20:35	69.9	69.9	69.9	33	39.5	0	1	248	0.00	30.265 
20:40	69.4	69.4	69.4	34	39.8	0	0	---	0.00	30.265 
20:45	69.1	69.1	69.1	34	39.5	0	0	---	0.00	30.266 
20:50	68.6	68.6	68.6	35	39.8	0	0	---	0.00	30.266 
20:55	67.9	67.9	67.9	36	40.0	0	0	---	0.00	30.266 
21:00	67.3	67.3	67.3	38	40.8	0	0	---	0.00	30.272 
21:05	66.6	66.6	66.6	39	40.9	0	0	---	0.00	30.272 
21:10	66.0	66.0	66.0	41	41.6	0	0	---	0.00	30.272 
21:15	65.5	65.5	65.5	42	41.8	0	0	---	0.00	30.280 
21:20	65.0	65.0	65.0	43	42.0	0	0	---	0.00	30.280 
21:25	64.3	64.3	64.3	45	42.5	0	0	---	0.00	30.280 
21:30	63.7	63.7	63.7	46	42.5	0	0	---	0.00	30.284 
21:35	63.2	63.2	63.2	47	42.6	0	0	---	0.00	30.284 
21:40	62.6	62.6	62.6	48	42.6	0	0	---	0.00	30.284 
21:45	62.1	62.1	62.1	49	42.7	0	0	---	0.00	30.287 
21:50	61.5	61.5	61.5	50	42.7	0	0	---	0.00	30.287 
21:55	61.2	61.2	61.2	51	42.9	0	0	---	0.00	30.287 
22:00	60.7	60.7	60.7	52	43.0	0	0	---	0.00	30.289 
22:05	60.2	60.2	60.2	54	43.5	0	0	---	0.00	30.289 
22:10	59.8	59.8	59.8	54	43.1	0	0	---	0.00	30.289 
22:15	59.5	59.5	59.5	55	43.3	0	0	---	0.00	30.292 
22:20	59.2	59.2	59.2	57	44.0	0	0	---	0.00	30.292 
22:25	58.7	58.7	58.7	58	44.0	0	0	---	0.00	30.292 
22:30	58.4	58.4	58.4	58	43.7	0	0	---	0.00	30.290 
22:35	58.1	58.1	58.1	59	43.8	0	0	---	0.00	30.290 
22:40	57.8	57.8	57.8	60	44.0	0	0	---	0.00	30.290 
22:45	57.6	57.6	57.6	61	44.2	0	0	---	0.00	30.287 
22:50	57.3	57.3	57.3	61	44.0	0	0	---	0.00	30.287 
22:55	57.2	57.2	57.2	63	44.7	0	0	---	0.00	30.287 
23:00	56.9	56.9	56.9	63	44.4	0	0	---	0.00	30.289 
23:05	56.6	56.6	56.6	63	44.2	0	0	---	0.00	30.289 
23:10	56.5	56.5	56.5	64	44.5	0	0	---	0.00	30.289 
23:15	56.3	56.3	56.3	65	44.7	0	0	---	0.00	30.285 
23:20	56.0	56.0	56.0	65	44.4	0	0	---	0.00	30.285 
23:25	56.0	56.0	56.0	65	44.4	0	0	---	0.00	30.285 
23:30	55.9	55.9	55.9	63	43.5	0	0	---	0.00	30.287 
23:35	56.0	56.0	56.0	64	44.0	0	0	---	0.00	30.287 
23:40	56.0	56.0	56.0	62	43.2	0	0	---	0.00	30.287 
23:45	56.0	56.0	56.0	62	43.2	0	0	---	0.00	30.290 
23:50	56.0	56.0	56.0	62	43.2	0	0	---	0.00	30.290 
23:55	55.9	55.9	55.9	63	43.5	0	0	---	0.00	30.290 

CoCoRaHS
IN-AL-39
A2 Web Hosting
Creative Commons License
GoDaddy
search engine by freefind advanced

loaded 2018-11-15 02:57:59 • last modified 2010-11-18 10:43:29
Privacy PolicyDisclaimer
• wx.awcolley.com is powered by PmWiki v.2002016 •
• all content (unless otherwise noted) © 2018 A W Colley